Time;durP1;ratioP1;P1;durP2;ratioP2;P2;SDS_P1;SDS_P2;PMS_P1;PMS_P2;Temp;Humidity;BMP_temperature;BMP_pressure;BME280_temperature;BME280_humidity;BME280_pressure;Samples;Min_cycle;Max_cycle;Signal;HPM_P1;HPM_P2
2021/06/13 00:00:52;;;;;;;1999.90;999.90;;;10.40;99.90;;;;;;5053064;28;20730;-57
2021/06/13 00:03:19;;;;;;;1999.90;999.90;;;10.40;99.90;;;;;;5053147;28;20211;-56
2021/06/13 00:05:46;;;;;;;1999.90;999.90;;;10.40;99.90;;;;;;5052824;28;20256;-58
2021/06/13 00:08:13;;;;;;;1999.90;999.90;;;10.30;99.90;;;;;;5052640;28;20647;-57
2021/06/13 00:10:39;;;;;;;1999.90;999.90;;;10.30;99.90;;;;;;5052771;28;20229;-54
2021/06/13 00:13:06;;;;;;;1999.90;999.90;;;10.30;99.90;;;;;;5052709;28;20176;-58
2021/06/13 00:15:33;;;;;;;1999.90;999.90;;;10.30;99.90;;;;;;5052863;28;20257;-58
2021/06/13 00:17:59;;;;;;;1999.90;999.90;;;10.40;99.90;;;;;;5053123;28;20177;-58
2021/06/13 00:20:30;;;;;;;1999.90;999.90;;;10.40;99.90;;;;;;5052710;28;20177;-57
2021/06/13 00:22:57;;;;;;;1999.90;999.90;;;10.30;99.90;;;;;;5052994;28;20576;-56
2021/06/13 00:25:24;;;;;;;1999.90;999.90;;;10.30;99.90;;;;;;5052677;28;20213;-57
2021/06/13 00:27:51;;;;;;;1999.90;999.90;;;10.30;99.90;;;;;;5052611;28;20569;-58
2021/06/13 00:30:18;;;;;;;1999.90;999.90;;;10.30;99.90;;;;;;5052653;28;20256;-59
2021/06/13 00:32:45;;;;;;;1999.90;999.90;;;10.20;99.90;;;;;;5052795;28;20173;-57
2021/06/13 00:35:12;;;;;;;1999.90;999.90;;;10.20;99.90;;;;;;5052296;28;20181;-58
2021/06/13 00:37:39;;;;;;;1999.90;999.90;;;10.20;99.90;;;;;;5052641;28;20256;-58
2021/06/13 00:40:07;;;;;;;1999.90;999.90;;;10.20;99.90;;;;;;5052220;28;20177;-57
2021/06/13 00:42:35;;;;;;;1999.90;999.90;;;10.20;99.90;;;;;;5052369;28;20374;-58
2021/06/13 00:45:04;;;;;;;1999.90;999.90;;;10.20;99.90;;;;;;5051849;28;20432;-56
2021/06/13 00:47:31;;;;;;;1999.90;999.90;;;10.00;99.90;;;;;;5052511;28;20553;-58
2021/06/13 00:49:58;;;;;;;1999.90;999.90;;;9.90;99.90;;;;;;5052094;28;20177;-57
2021/06/13 00:52:25;;;;;;;1999.90;999.90;;;9.90;99.90;;;;;;5034341;28;20662;-58
2021/06/13 00:54:52;;;;;;;1999.90;999.90;;;9.80;99.90;;;;;;5051961;28;20162;-55
2021/06/13 00:57:20;;;;;;;1999.90;999.90;;;9.70;99.90;;;;;;5052171;28;20166;-57
2021/06/13 00:59:46;;;;;;;1999.90;999.90;;;9.60;99.90;;;;;;5052366;28;20172;-58
2021/06/13 01:02:13;;;;;;;1999.90;999.90;;;9.60;99.90;;;;;;5051651;28;20177;-56
2021/06/13 01:04:40;;;;;;;1999.90;999.90;;;9.60;99.90;;;;;;5051614;28;20205;-57
2021/06/13 01:07:27;;;;;;;1999.90;999.90;;;9.70;99.90;;;;;;5052136;28;20169;-58
2021/06/13 01:10:06;;;;;;;1999.90;999.90;;;9.70;99.90;;;;;;5051467;28;20626;-58
2021/06/13 01:12:40;;;;;;;1999.90;999.90;;;9.70;99.90;;;;;;5051842;28;20164;-58
2021/06/13 01:15:21;;;;;;;1999.90;999.90;;;9.80;99.90;;;;;;5051718;28;20243;-58
2021/06/13 01:18:02;;;;;;;1999.90;999.90;;;9.80;99.90;;;;;;5051436;28;20189;-58
2021/06/13 01:20:40;;;;;;;1999.90;999.90;;;9.90;99.90;;;;;;5051586;28;20169;-57
2021/06/13 01:23:25;;;;;;;1999.90;999.90;;;10.00;99.90;;;;;;5051712;28;20200;-59
2021/06/13 01:26:22;;;;;;;1999.90;999.90;;;10.10;99.90;;;;;;5051134;28;20180;-58
2021/06/13 01:29:00;;;;;;;1999.90;999.90;;;10.20;99.90;;;;;;5050384;28;20655;-56
2021/06/13 01:31:47;;;;;;;1999.90;999.90;;;10.30;99.90;;;;;;5051124;28;20177;-57
2021/06/13 01:34:28;;;;;;;1999.90;999.90;;;10.40;99.90;;;;;;5051318;28;20160;-59
2021/06/13 01:36:56;;;;;;;1999.90;999.90;;;10.60;99.90;;;;;;5051299;28;20161;-58
2021/06/13 01:39:27;;;;;;;1999.90;999.90;;;10.80;99.90;;;;;;5051243;28;20165;-58
2021/06/13 01:41:57;;;;;;;1999.90;999.90;;;10.80;99.90;;;;;;5051437;28;20231;-59
2021/06/13 01:44:25;;;;;;;1999.90;999.90;;;10.80;99.90;;;;;;5050990;28;20288;-58
2021/06/13 01:46:52;;;;;;;1999.90;999.90;;;10.80;99.90;;;;;;5050680;28;20177;-58
2021/06/13 01:49:20;;;;;;;1999.90;999.90;;;10.90;99.90;;;;;;5051295;28;20647;-58
2021/06/13 01:51:48;;;;;;;1999.90;999.90;;;11.00;99.90;;;;;;5051184;28;20637;-58
2021/06/13 01:54:17;;;;;;;1999.90;999.90;;;11.10;99.90;;;;;;5050540;28;20264;-60
2021/06/13 01:56:47;;;;;;;1999.90;999.90;;;11.20;99.90;;;;;;5051318;28;20613;-59
2021/06/13 01:59:17;;;;;;;1999.90;999.90;;;11.20;99.90;;;;;;5050821;28;20166;-59
2021/06/13 02:01:46;;;;;;;1999.90;999.90;;;11.20;99.90;;;;;;5050962;28;20189;-57
2021/06/13 02:04:14;;;;;;;1999.90;999.90;;;11.20;99.90;;;;;;5050970;28;20197;-58
2021/06/13 02:06:49;;;;;;;1999.90;999.90;;;11.30;99.90;;;;;;5050249;28;20497;-59
2021/06/13 02:09:20;;;;;;;1999.90;999.90;;;11.20;99.90;;;;;;5050667;28;20153;-58
2021/06/13 02:11:48;;;;;;;1999.90;999.90;;;11.30;99.90;;;;;;5051342;28;20578;-55
2021/06/13 02:14:19;;;;;;;1999.90;999.90;;;11.40;99.90;;;;;;5050652;28;20276;-59
2021/06/13 02:16:48;;;;;;;1999.90;999.90;;;11.40;99.90;;;;;;5050858;28;20170;-59
2021/06/13 02:19:18;;;;;;;1999.90;999.90;;;11.50;99.90;;;;;;5032707;28;20177;-59
2021/06/13 02:21:47;;;;;;;1999.90;999.90;;;11.50;99.90;;;;;;5050547;28;20658;-59
2021/06/13 02:24:16;;;;;;;1999.90;999.90;;;11.60;99.90;;;;;;5050492;28;20212;-59
2021/06/13 02:26:44;;;;;;;1999.90;999.90;;;11.60;99.90;;;;;;5050608;28;20219;-57
2021/06/13 02:29:12;;;;;;;1999.90;999.90;;;11.60;99.90;;;;;;5050667;28;20173;-58
2021/06/13 02:31:42;;;;;;;1999.90;999.90;;;11.70;99.90;;;;;;5050848;28;20157;-59
2021/06/13 02:34:09;;;;;;;1999.90;999.90;;;11.70;99.90;;;;;;5050857;28;20620;-59
2021/06/13 02:36:38;;;;;;;1999.90;999.90;;;11.80;99.90;;;;;;5050696;28;20636;-59
2021/06/13 02:39:07;;;;;;;1999.90;999.90;;;11.80;99.90;;;;;;5050591;28;20196;-59
2021/06/13 02:41:35;;;;;;;1999.90;999.90;;;11.80;99.90;;;;;;5050787;28;20208;-59
2021/06/13 02:44:02;;;;;;;1999.90;999.90;;;11.90;99.90;;;;;;5050271;28;20203;-57
2021/06/13 02:46:29;;;;;;;1999.90;999.90;;;11.90;99.90;;;;;;5050454;28;20164;-57
2021/06/13 02:48:56;;;;;;;1999.90;999.90;;;11.90;99.90;;;;;;5050227;28;20173;-58
2021/06/13 02:51:28;;;;;;;1999.90;999.90;;;12.00;99.90;;;;;;5051190;28;20643;-60
2021/06/13 02:53:56;;;;;;;1999.90;999.90;;;12.00;99.90;;;;;;5050944;28;20196;-57
2021/06/13 02:56:34;;;;;;;1999.90;999.90;;;12.00;99.90;;;;;;5050350;28;20192;-58
2021/06/13 02:59:25;;;;;;;1999.90;999.90;;;12.00;99.90;;;;;;5050391;28;20169;-60
2021/06/13 03:01:54;;;;;;;1999.90;999.90;;;12.10;99.90;;;;;;5050606;28;20244;-60
2021/06/13 03:04:23;;;;;;;1999.90;999.90;;;12.10;99.90;;;;;;5050355;28;20667;-58
2021/06/13 03:06:54;;;;;;;1999.90;999.90;;;12.10;99.90;;;;;;5050155;28;20169;-58
2021/06/13 03:09:23;;;;;;;1999.90;999.90;;;12.10;99.90;;;;;;5050344;28;20157;-59
2021/06/13 03:11:50;;;;;;;1999.90;999.90;;;12.20;99.90;;;;;;5049934;28;20594;-58
2021/06/13 03:14:18;;;;;;;1999.90;999.90;;;12.20;99.90;;;;;;5050717;28;20196;-60
2021/06/13 03:16:46;;;;;;;1999.90;999.90;;;12.20;99.90;;;;;;5050203;28;20451;-59
2021/06/13 03:19:14;;;;;;;1999.90;999.90;;;12.20;99.90;;;;;;5036065;28;20165;-58
2021/06/13 03:21:42;;;;;;;1999.90;999.90;;;12.20;99.90;;;;;;5054063;28;20174;-58
2021/06/13 03:24:10;;;;;;;1999.90;999.90;;;12.20;99.90;;;;;;5053994;28;20222;-60
2021/06/13 03:26:38;;;;;;;1999.90;999.90;;;12.30;99.90;;;;;;5053529;28;20173;-60
2021/06/13 03:29:06;;;;;;;1999.90;999.90;;;12.30;99.90;;;;;;5053797;28;20199;-60
2021/06/13 03:31:33;;;;;;;1999.90;999.90;;;12.30;99.90;;;;;;5053602;28;20161;-58
2021/06/13 03:34:00;;;;;;;1999.90;999.90;;;12.40;99.90;;;;;;5053412;28;20594;-58
2021/06/13 03:36:29;;;;;;;1999.90;999.90;;;12.30;99.90;;;;;;5053768;28;20176;-58
2021/06/13 03:38:57;;;;;;;1999.90;999.90;;;12.40;99.90;;;;;;5053824;28;20506;-58
2021/06/13 03:41:24;;;;;;;1999.90;999.90;;;12.40;99.90;;;;;;5053405;28;20167;-56
2021/06/13 03:43:53;;;;;;;1999.90;999.90;;;12.40;99.90;;;;;;5053125;28;20723;-58
2021/06/13 03:46:21;;;;;;;1999.90;999.90;;;12.50;99.90;;;;;;5053512;28;20197;-58
2021/06/13 03:48:53;;;;;;;1999.90;999.90;;;12.50;99.90;;;;;;5053067;28;20161;-58
2021/06/13 03:51:21;;;;;;;1999.90;999.90;;;12.50;99.90;;;;;;5035703;28;20173;-57
2021/06/13 03:53:54;;;;;;;1999.90;999.90;;;12.50;99.90;;;;;;5053296;28;20263;-58
2021/06/13 03:56:35;;;;;;;1999.90;999.90;;;12.50;99.90;;;;;;5053027;28;20173;-58
2021/06/13 03:59:03;;;;;;;1999.90;999.90;;;12.50;99.90;;;;;;5053525;28;20172;-58
2021/06/13 04:01:32;;;;;;;1999.90;999.90;;;12.50;99.90;;;;;;5053145;28;20157;-58
2021/06/13 04:03:59;;;;;;;1999.90;999.90;;;12.60;99.90;;;;;;5052834;28;20287;-58
2021/06/13 04:06:27;;;;;;;1999.90;999.90;;;12.50;99.90;;;;;;5053374;28;20500;-58
2021/06/13 04:08:55;;;;;;;1999.90;999.90;;;12.50;99.90;;;;;;5052781;28;20169;-57
2021/06/13 04:11:24;;;;;;;1999.90;999.90;;;12.50;99.90;;;;;;5052484;28;20278;-57
2021/06/13 04:13:52;;;;;;;1999.90;999.90;;;12.50;99.90;;;;;;5053042;28;20173;-60
2021/06/13 04:16:21;;;;;;;1999.90;999.90;;;12.50;99.90;;;;;;5052646;28;20631;-59
2021/06/13 04:18:49;;;;;;;1999.90;999.90;;;12.40;99.90;;;;;;5053096;28;20169;-59
2021/06/13 04:21:16;;;;;;;1999.90;999.90;;;12.40;99.90;;;;;;5052694;28;20223;-59
2021/06/13 04:23:45;;;;;;;1999.90;999.90;;;12.40;99.90;;;;;;5052731;28;20199;-58
2021/06/13 04:26:18;;;;;;;1999.90;999.90;;;12.30;99.90;;;;;;5052697;28;20578;-59
2021/06/13 04:28:45;;;;;;;1999.90;999.90;;;12.20;99.90;;;;;;5052354;28;20223;-59
2021/06/13 04:31:17;;;;;;;1999.90;999.90;;;12.20;99.90;;;;;;5052276;28;20271;-59
2021/06/13 04:33:49;;;;;;;1999.90;999.90;;;12.20;99.90;;;;;;5052752;28;20153;-59
2021/06/13 04:36:17;;;;;;;1999.90;999.90;;;12.20;99.90;;;;;;5052363;28;20169;-59
2021/06/13 04:38:44;;;;;;;1999.90;999.90;;;12.10;99.90;;;;;;5052405;28;20169;-59
2021/06/13 04:41:11;;;;;;;1999.90;999.90;;;12.10;99.90;;;;;;5052622;28;20580;-58
2021/06/13 04:43:39;;;;;;;1999.90;999.90;;;12.10;99.90;;;;;;5052376;28;20612;-59
2021/06/13 04:46:10;;;;;;;1999.90;999.90;;;12.10;99.90;;;;;;5051991;28;20165;-59
2021/06/13 04:48:41;;;;;;;1999.90;999.90;;;12.00;99.90;;;;;;5052850;28;20231;-58
2021/06/13 04:51:11;;;;;;;1999.90;999.90;;;11.90;99.90;;;;;;5052392;28;20169;-60
2021/06/13 04:53:47;;;;;;;1999.90;999.90;;;11.90;99.90;;;;;;5052240;28;20164;-58
2021/06/13 04:56:52;;;;;;;1999.90;999.90;;;11.90;99.90;;;;;;5052185;28;20169;-59
2021/06/13 04:59:19;;;;;;;1999.90;999.90;;;11.90;99.90;;;;;;5049169;28;20181;-58
2021/06/13 05:01:46;;;;;;;1999.90;999.90;;;11.90;99.90;;;;;;5051998;28;20185;-58
2021/06/13 05:04:13;;;;;;;1999.90;999.90;;;11.90;99.90;;;;;;5051764;28;20287;-57
2021/06/13 05:06:44;;;;;;;1999.90;999.90;;;11.90;99.90;;;;;;5051948;28;20593;-60
2021/06/13 05:09:12;;;;;;;1999.90;999.90;;;11.80;99.90;;;;;;5051939;28;20173;-59
2021/06/13 05:11:39;;;;;;;1999.90;999.90;;;11.80;99.90;;;;;;5051684;28;20726;-59
2021/06/13 05:14:07;;;;;;;1999.90;999.90;;;11.80;99.90;;;;;;5051790;28;20180;-58
2021/06/13 05:16:34;;;;;;;1999.90;999.90;;;11.80;99.90;;;;;;5051583;28;20188;-57
2021/06/13 05:19:01;;;;;;;1999.90;999.90;;;11.80;99.90;;;;;;5051596;28;20165;-58
2021/06/13 05:21:28;;;;;;;1999.90;999.90;;;11.80;99.90;;;;;;5051337;28;20176;-56
2021/06/13 05:23:55;;;;;;;1999.90;999.90;;;11.80;99.90;;;;;;5051486;28;20226;-55
2021/06/13 05:26:21;;;;;;;1999.90;999.90;;;11.80;99.90;;;;;;5051309;28;20205;-58
2021/06/13 05:28:48;;;;;;;1999.90;999.90;;;11.80;99.90;;;;;;5051273;28;20215;-58
2021/06/13 05:31:15;;;;;;;1999.90;999.90;;;11.80;99.90;;;;;;5051358;28;20165;-59
2021/06/13 05:33:42;;;;;;;1999.90;999.90;;;11.80;99.90;;;;;;5051456;28;20169;-57
2021/06/13 05:36:08;;;;;;;1999.90;999.90;;;11.80;99.90;;;;;;5051124;28;20196;-59
2021/06/13 05:38:35;;;;;;;1999.90;999.90;;;11.80;99.90;;;;;;5051473;28;20173;-58
2021/06/13 05:41:02;;;;;;;1999.90;999.90;;;11.80;99.90;;;;;;5050390;28;20663;-58
2021/06/13 05:43:29;;;;;;;1999.90;999.90;;;11.80;99.90;;;;;;5051182;28;20200;-58
2021/06/13 05:45:58;;;;;;;1999.90;999.90;;;11.80;99.90;;;;;;5051173;28;20655;-58
2021/06/13 05:48:25;;;;;;;1999.90;999.90;;;11.80;99.90;;;;;;5051047;28;20169;-58
2021/06/13 05:50:53;;;;;;;1999.90;999.90;;;11.90;99.90;;;;;;5050902;28;20165;-58
2021/06/13 05:53:20;;;;;;;1999.90;999.90;;;11.90;99.90;;;;;;5051364;28;20323;-59
2021/06/13 05:55:47;;;;;;;1999.90;999.90;;;11.90;99.90;;;;;;5050891;28;20177;-57
2021/06/13 05:58:14;;;;;;;1999.90;999.90;;;11.90;99.90;;;;;;5050826;28;20165;-59
2021/06/13 06:00:41;;;;;;;1999.90;999.90;;;11.90;99.90;;;;;;5033784;28;20638;-59
2021/06/13 06:03:08;;;;;;;1999.90;999.90;;;12.00;99.90;;;;;;5050571;28;20540;-58
2021/06/13 06:05:36;;;;;;;1999.90;999.90;;;12.00;99.90;;;;;;5050930;28;20707;-59
2021/06/13 06:08:03;;;;;;;1999.90;999.90;;;12.00;99.90;;;;;;5051228;28;20168;-59
2021/06/13 06:10:33;;;;;;;1999.90;999.90;;;12.10;99.90;;;;;;5050552;28;20230;-57
2021/06/13 06:13:03;;;;;;;1999.90;999.90;;;12.10;99.90;;;;;;5050781;28;20183;-59
2021/06/13 06:15:34;;;;;;;1999.90;999.90;;;12.10;99.90;;;;;;5050852;28;20181;-59
2021/06/13 06:18:01;;;;;;;1999.90;999.90;;;12.10;99.90;;;;;;5050706;28;20529;-58
2021/06/13 06:20:28;;;;;;;1999.90;999.90;;;12.20;99.90;;;;;;5050614;28;20197;-58
2021/06/13 06:22:57;;;;;;;1999.90;999.90;;;12.20;99.90;;;;;;5050855;28;20300;-58
2021/06/13 06:25:25;;;;;;;1999.90;999.90;;;12.30;99.90;;;;;;5050042;28;20435;-59
2021/06/13 06:27:52;;;;;;;1999.90;999.90;;;12.30;99.90;;;;;;5050706;28;20169;-59
2021/06/13 06:30:21;;;;;;;1999.90;999.90;;;12.30;99.90;;;;;;5050546;28;20261;-59
2021/06/13 06:32:48;;;;;;;1999.90;999.90;;;12.40;99.90;;;;;;5050524;28;20170;-58
2021/06/13 06:35:16;;;;;;;1999.90;999.90;;;12.40;99.90;;;;;;5050583;28;20234;-59
2021/06/13 06:37:43;;;;;;;1999.90;999.90;;;12.50;99.90;;;;;;5050623;28;20173;-58
2021/06/13 06:40:13;;;;;;;1999.90;999.90;;;12.60;99.90;;;;;;5050151;28;20540;-58
2021/06/13 06:42:41;;;;;;;1999.90;999.90;;;12.60;99.90;;;;;;5050395;28;20177;-58
2021/06/13 06:45:11;;;;;;;1999.90;999.90;;;12.70;99.90;;;;;;5031673;28;20205;-59
2021/06/13 06:47:38;;;;;;;1999.90;999.90;;;12.80;99.90;;;;;;5049991;28;20588;-60
2021/06/13 06:50:06;;;;;;;1999.90;999.90;;;12.70;99.90;;;;;;5050419;28;20197;-60
2021/06/13 06:52:34;;;;;;;1999.90;999.90;;;12.80;99.90;;;;;;5051134;28;20178;-58
2021/06/13 06:55:01;;;;;;;1999.90;999.90;;;12.80;99.90;;;;;;5053638;28;20169;-59
2021/06/13 06:57:28;;;;;;;1999.90;999.90;;;12.80;99.90;;;;;;5054320;28;20170;-58
2021/06/13 06:59:54;;;;;;;1999.90;999.90;;;12.90;99.90;;;;;;5053706;28;20169;-59
2021/06/13 07:02:21;;;;;;;1999.90;999.90;;;13.00;99.90;;;;;;5053696;28;20197;-58
2021/06/13 07:04:48;;;;;;;1999.90;999.90;;;13.10;99.90;;;;;;5053990;28;20299;-59
2021/06/13 07:07:14;;;;;;;1999.90;999.90;;;13.10;99.90;;;;;;5054153;28;20165;-59
2021/06/13 07:09:41;;;;;;;1999.90;999.90;;;13.10;99.90;;;;;;5053407;28;20200;-59
2021/06/13 07:12:08;;;;;;;1999.90;999.90;;;13.20;99.90;;;;;;5054045;28;20238;-59
2021/06/13 07:14:35;;;;;;;1999.90;999.90;;;13.20;99.90;;;;;;5053826;28;20204;-60
2021/06/13 07:17:02;;;;;;;1999.90;999.90;;;13.30;99.90;;;;;;5053500;28;20161;-59
2021/06/13 07:19:29;;;;;;;1999.90;999.90;;;13.30;99.90;;;;;;5053851;28;20161;-59
2021/06/13 07:21:56;;;;;;;1999.90;999.90;;;13.30;99.90;;;;;;5053376;28;20172;-60
2021/06/13 07:24:22;;;;;;;1999.90;999.90;;;13.40;99.90;;;;;;5053019;28;20216;-60
2021/06/13 07:26:49;;;;;;;1999.90;999.90;;;13.40;99.90;;;;;;5053415;28;20188;-60
2021/06/13 07:29:16;;;;;;;1999.90;999.90;;;13.50;99.90;;;;;;5053466;28;20173;-60
2021/06/13 07:31:44;;;;;;;1999.90;999.90;;;13.60;99.90;;;;;;5053537;28;20168;-60
2021/06/13 07:34:11;;;;;;;1999.90;999.90;;;13.60;99.90;;;;;;5053178;28;20173;-59
2021/06/13 07:36:37;;;;;;;1999.90;999.90;;;13.60;99.90;;;;;;5053012;28;20181;-60
2021/06/13 07:39:05;;;;;;;1999.90;999.90;;;13.60;99.90;;;;;;5053012;28;20169;-60
2021/06/13 07:41:32;;;;;;;1999.90;999.90;;;13.70;99.90;;;;;;5052996;28;20169;-57
2021/06/13 07:44:00;;;;;;;1999.90;999.90;;;13.70;99.90;;;;;;5052502;28;20568;-58
2021/06/13 07:46:27;;;;;;;1999.90;999.90;;;13.60;99.90;;;;;;5053002;28;20185;-59
2021/06/13 07:48:54;;;;;;;1999.90;999.90;;;13.70;99.90;;;;;;5053230;28;20172;-58
2021/06/13 07:51:21;;;;;;;1999.90;999.90;;;13.70;99.90;;;;;;5052944;28;20538;-58
2021/06/13 07:53:48;;;;;;;1999.90;999.90;;;13.80;99.90;;;;;;5052559;28;20527;-58
2021/06/13 07:56:15;;;;;;;1999.90;999.90;;;13.80;99.90;;;;;;5052932;28;20564;-58
2021/06/13 07:58:42;;;;;;;1999.90;999.90;;;13.80;99.90;;;;;;5052710;28;20231;-58
2021/06/13 08:01:09;;;;;;;1999.90;999.90;;;13.90;99.90;;;;;;5052756;28;20634;-58
2021/06/13 08:03:40;;;;;;;1999.90;999.90;;;13.90;99.90;;;;;;5052193;28;20166;-58
2021/06/13 08:06:07;;;;;;;1999.90;999.90;;;13.90;99.90;;;;;;5052177;28;20643;-59
2021/06/13 08:08:34;;;;;;;1999.90;999.90;;;14.00;99.90;;;;;;5052898;28;20178;-59
2021/06/13 08:11:02;;;;;;;1999.90;999.90;;;14.00;99.90;;;;;;5052235;28;20236;-58
2021/06/13 08:13:29;;;;;;;1999.90;999.90;;;14.00;99.90;;;;;;5053033;28;20881;-59
2021/06/13 08:15:55;;;;;;;1999.90;999.90;;;14.00;99.90;;;;;;5052904;28;20169;-60
2021/06/13 08:18:22;;;;;;;1999.90;999.90;;;14.00;99.90;;;;;;5052165;28;20180;-59
2021/06/13 08:20:50;;;;;;;1999.90;999.90;;;14.10;99.90;;;;;;5052342;28;20260;-59
2021/06/13 08:23:17;;;;;;;1999.90;999.90;;;14.10;99.90;;;;;;5052670;28;20187;-59
2021/06/13 08:25:44;;;;;;;1999.90;999.90;;;14.20;99.90;;;;;;5052257;28;20295;-59
2021/06/13 08:28:11;;;;;;;1999.90;999.90;;;14.20;99.90;;;;;;5052100;28;20183;-59
2021/06/13 08:30:38;;;;;;;1999.90;999.90;;;14.30;99.90;;;;;;5052418;28;20177;-59
2021/06/13 08:33:05;;;;;;;1999.90;999.90;;;14.30;99.90;;;;;;5051779;28;20181;-59
2021/06/13 08:35:31;;;;;;;1999.90;999.90;;;14.40;99.90;;;;;;5052029;28;20205;-60
2021/06/13 08:38:01;;;;;;;1999.90;999.90;;;14.40;99.90;;;;;;5052612;28;20173;-59
2021/06/13 08:40:28;;;;;;;1999.90;999.90;;;14.40;99.90;;;;;;5052055;28;20187;-59
2021/06/13 08:42:55;;;;;;;1999.90;999.90;;;14.50;99.90;;;;;;5052252;28;20179;-59
2021/06/13 08:45:24;;;;;;;1999.90;999.90;;;14.50;99.90;;;;;;5034973;28;20544;-61
2021/06/13 08:47:54;;;;;;;1999.90;999.90;;;14.60;99.90;;;;;;5051798;28;20181;-59
2021/06/13 08:50:22;;;;;;;1999.90;999.90;;;14.60;99.90;;;;;;5051871;28;20187;-59
2021/06/13 08:52:51;;;;;;;1999.90;999.90;;;14.70;99.90;;;;;;5051904;28;20203;-61
2021/06/13 08:55:19;;;;;;;1999.90;999.90;;;14.70;99.90;;;;;;5051761;28;20165;-61
2021/06/13 08:57:47;;;;;;;1999.90;999.90;;;14.70;99.90;;;;;;5051825;28;20169;-59
2021/06/13 09:00:17;;;;;;;1999.90;999.90;;;14.80;99.90;;;;;;5051897;28;20162;-61
2021/06/13 09:02:45;;;;;;;1999.90;999.90;;;14.80;99.90;;;;;;5051870;28;20169;-61
2021/06/13 09:05:13;;;;;;;1999.90;999.90;;;14.90;99.90;;;;;;5051431;28;20196;-61
2021/06/13 09:07:58;;;;;;;1999.90;999.90;;;14.90;99.90;;;;;;5051535;28;20176;-61
2021/06/13 09:10:27;;;;;;;1999.90;999.90;;;15.00;99.90;;;;;;5050980;28;20273;-61
2021/06/13 09:13:17;;;;;;;1999.90;999.90;;;15.00;99.90;;;;;;5051657;28;20199;-59
2021/06/13 09:16:07;;;;;;;1999.90;999.90;;;15.20;99.90;;;;;;5051302;28;20571;-59
2021/06/13 09:18:47;;;;;;;1999.90;999.90;;;15.10;99.90;;;;;;5051062;28;20238;-59
2021/06/13 09:21:26;;;;;;;1999.90;999.90;;;15.20;99.90;;;;;;5051458;28;20681;-60
2021/06/13 09:23:53;;;;;;;1999.90;999.90;;;15.30;99.90;;;;;;5051203;28;20202;-62
2021/06/13 09:26:24;;;;;;;1999.90;999.90;;;15.40;99.90;;;;;;5051035;28;20161;-60
2021/06/13 09:28:52;;;;;;;1999.90;999.90;;;15.40;99.90;;;;;;5051381;28;20157;-60
2021/06/13 09:31:20;;;;;;;1999.90;999.90;;;15.40;99.90;;;;;;5051081;28;20583;-59
2021/06/13 09:33:50;;;;;;;1999.90;999.90;;;15.30;99.90;;;;;;5051184;28;20181;-60
2021/06/13 09:36:23;;;;;;;1999.90;999.90;;;15.30;99.90;;;;;;5051204;28;20623;-59
2021/06/13 09:38:54;;;;;;;1999.90;999.90;;;15.40;99.90;;;;;;5050990;28;20161;-61
2021/06/13 09:41:23;;;;;;;1999.90;999.90;;;15.30;99.90;;;;;;5051437;28;20611;-60
2021/06/13 09:43:56;;;;;;;1999.90;999.90;;;15.30;99.90;;;;;;5050608;28;20212;-60
2021/06/13 09:46:29;;;;;;;1999.90;999.90;;;15.50;99.90;;;;;;5050595;28;20563;-60
2021/06/13 09:49:02;;;;;;;1999.90;999.90;;;15.60;99.90;;;;;;5051156;28;20169;-61
2021/06/13 09:51:33;;;;;;;1999.90;999.90;;;15.70;99.90;;;;;;5050594;28;20164;-61
2021/06/13 09:54:01;;;;;;;1999.90;999.90;;;15.70;99.90;;;;;;5050448;28;20294;-61
2021/06/13 09:56:36;;;;;;;1999.90;999.90;;;15.80;99.90;;;;;;5050919;28;20169;-60
2021/06/13 09:59:25;;;;;;;1999.90;999.90;;;15.80;99.90;;;;;;5050441;28;20263;-61
2021/06/13 10:01:54;;;;;;;1999.90;999.90;;;15.80;99.90;;;;;;5050973;28;20240;-61
2021/06/13 10:04:22;;;;;;;1999.90;999.90;;;15.90;99.90;;;;;;5050604;28;20208;-61
2021/06/13 10:06:49;;;;;;;1999.90;999.90;;;16.00;99.90;;;;;;5050720;28;20162;-60
2021/06/13 10:09:18;;;;;;;1999.90;999.90;;;16.00;99.90;;;;;;5050672;28;20212;-60
2021/06/13 10:11:47;;;;;;;1999.90;999.90;;;16.00;99.90;;;;;;5050613;28;20221;-60
2021/06/13 10:14:18;;;;;;;1999.90;999.90;;;16.00;99.90;;;;;;5050253;28;20161;-62
2021/06/13 10:16:51;;;;;;;1999.90;999.90;;;16.00;99.90;;;;;;5050820;28;20346;-61
2021/06/13 10:19:20;;;;;;;1999.90;999.90;;;16.00;99.90;;;;;;5050475;28;20253;-61
2021/06/13 10:21:51;;;;;;;1999.90;999.90;;;16.00;99.90;;;;;;5050774;28;20311;-61
2021/06/13 10:24:20;;;;;;;1999.90;999.90;;;16.10;99.90;;;;;;5050779;28;20195;-60
2021/06/13 10:26:58;;;;;;;1999.90;999.90;;;16.20;99.90;;;;;;5050171;28;20180;-61
2021/06/13 10:29:27;;;;;;;1999.90;999.90;;;16.10;99.90;;;;;;5050302;28;20240;-61
2021/06/13 10:31:57;;;;;;;1999.90;999.90;;;16.30;99.90;;;;;;5050656;28;20663;-61
2021/06/13 10:34:25;;;;;;;1999.90;999.90;;;16.30;99.90;;;;;;5050385;28;20218;-61
2021/06/13 10:36:54;;;;;;;1999.90;999.90;;;16.40;99.90;;;;;;5050489;28;20165;-61
2021/06/13 10:39:24;;;;;;;1999.90;999.90;;;16.50;99.90;;;;;;5050403;28;20161;-61
2021/06/13 10:41:52;;;;;;;1999.90;999.90;;;16.50;99.90;;;;;;5050150;28;20242;-61
2021/06/13 10:44:22;;;;;;;1999.90;999.90;;;16.50;99.90;;;;;;5049879;28;20205;-61
2021/06/13 10:46:52;;;;;;;1999.90;999.90;;;16.50;99.90;;;;;;5050226;28;20160;-60
2021/06/13 10:49:37;;;;;;;1999.90;999.90;;;16.50;99.90;;;;;;5050134;28;20638;-62
2021/06/13 10:52:18;;;;;;;1999.90;999.90;;;16.60;99.90;;;;;;5049927;28;20184;-61
2021/06/13 10:54:53;;;;;;;1999.90;999.90;;;16.60;99.90;;;;;;5050115;28;20524;-61
2021/06/13 10:57:21;;;;;;;1999.90;999.90;;;16.60;99.30;;;;;;5049952;28;20173;-62
2021/06/13 10:59:52;;;;;;;1999.90;999.90;;;16.50;99.30;;;;;;5050433;28;20515;-61
2021/06/13 11:02:28;;;;;;;1999.90;999.90;;;16.70;99.80;;;;;;5049963;28;20193;-61
2021/06/13 11:05:03;;;;;;;1999.90;999.90;;;16.60;99.90;;;;;;5049773;28;20230;-61
2021/06/13 11:10:06;;;;;;;1999.90;999.90;;;16.40;99.90;;;;;;5049774;28;20249;-62
2021/06/13 11:13:01;;;;;;;1999.90;999.90;;;16.60;99.50;;;;;;5031946;28;20263;-61
2021/06/13 11:15:30;;;;;;;1999.90;999.90;;;16.70;99.40;;;;;;5049904;28;20168;-62
2021/06/13 11:18:01;;;;;;;1999.90;999.90;;;16.70;98.80;;;;;;5049642;28;20318;-61
2021/06/13 11:23:08;;;;;;;1999.90;999.90;;;16.90;97.30;;;;;;5049935;28;20153;-61
2021/06/13 11:25:40;;;;;;;1999.90;999.90;;;16.80;97.70;;;;;;5049584;28;20220;-61
2021/06/13 11:28:18;;;;;;;1999.90;999.90;;;16.70;98.50;;;;;;5049811;28;20173;-61
2021/06/13 11:30:49;;;;;;;1999.90;999.90;;;16.80;98.70;;;;;;5049634;28;20173;-60
2021/06/13 11:33:40;;;;;;;1999.90;999.90;;;16.80;97.30;;;;;;5049511;28;20161;-61
2021/06/13 11:36:26;;;;;;;1999.90;999.90;;;16.80;97.20;;;;;;5049826;28;20166;-61
2021/06/13 11:39:03;;;;;;;1999.90;999.90;;;16.90;97.50;;;;;;5049318;28;20162;-60
2021/06/13 11:41:37;;;;;;;1999.90;999.90;;;17.00;96.00;;;;;;5035059;28;20169;-61
2021/06/13 11:44:06;;;;;;;1999.90;999.90;;;17.10;94.50;;;;;;5052751;28;20297;-61
2021/06/13 11:46:35;;;;;;;1999.90;999.90;;;17.10;95.20;;;;;;5052955;28;20641;-60
2021/06/13 11:49:05;;;;;;;1999.90;999.90;;;17.20;94.60;;;;;;5053356;28;20209;-62
2021/06/13 11:51:53;;;;;;;1999.90;999.90;;;17.30;95.80;;;;;;5053210;28;20251;-60
2021/06/13 11:54:33;;;;;;;1999.90;999.90;;;17.30;94.30;;;;;;5053177;28;20161;-61
2021/06/13 11:57:05;;;;;;;1999.90;999.90;;;17.20;95.20;;;;;;5053267;28;20371;-60
2021/06/13 11:59:33;;;;;;;1999.90;999.90;;;17.30;94.90;;;;;;5053055;28;20154;-61
2021/06/13 12:02:10;;;;;;;1999.90;999.90;;;17.30;95.40;;;;;;5052352;28;20346;-61
2021/06/13 12:04:38;;;;;;;1999.90;999.90;;;17.30;94.90;;;;;;5052649;28;20558;-61
2021/06/13 12:07:11;;;;;;;1999.90;999.90;;;17.40;94.30;;;;;;5052435;28;20173;-62
2021/06/13 12:09:38;;;;;;;1999.90;999.90;;;17.40;94.20;;;;;;5052216;28;20170;-60
2021/06/13 12:12:09;;;;;;;1999.90;999.90;;;17.40;93.80;;;;;;5034984;28;20173;-61
2021/06/13 12:14:43;;;;;;;1999.90;999.90;;;17.40;94.10;;;;;;5052309;28;20557;-61
2021/06/13 12:17:18;;;;;;;1999.90;999.90;;;17.30;94.90;;;;;;5052309;28;20150;-61